Terminal Aerodrome Forecast
Issued by NWS

Home | Current Version | Previous Version | Text Only | Print | Product List | Glossary On
Versions: 1 2 3 4 5 6 7 8 9 10 11 12 13 14 15 16
000
FTUS42 KMHX 201700 CCA
TAFOAJ
TAF COR
KOAJ 201759Z 2018/2118 02010G17KT P6SM BKN040 BKN100
      TEMPO 2018/2022 BKN025
     FM202200 01006KT P6SM VCSH SCT025 BKN040
     FM210600 36005KT 5SM BR VCSH BKN025
     FM211300 35007KT P6SM BKN080
      AMD LTD TO CLD VIS AND WIND=

USA.gov is the U.S. government's official web portal to all federal, state and local government web resources and services.